Time;durP1;ratioP1;P1;durP2;ratioP2;P2;SDS_P1;SDS_P2;PMS_P1;PMS_P2;Temp;Humidity;BMP_temperature;BMP_pressure;BME280_temperature;BME280_humidity;BME280_pressure;Samples;Min_cycle;Max_cycle;Signal;HPM_P1;HPM_P2
2022/12/31 00:00:38;;;;;;;0.80;0.40;;;;;16.90;99337.00;;;;2062875;28;20217;-55
2022/12/31 00:01:38;;;;;;;1.20;0.60;;;;;16.90;99340.00;;;;2062988;28;20208;-54
2022/12/31 00:02:39;;;;;;;0.70;0.40;;;;;16.90;99344.00;;;;2062990;28;20211;-55
2022/12/31 00:03:39;;;;;;;0.70;0.50;;;;;16.90;99355.00;;;;2070215;28;20303;-52
2022/12/31 00:04:39;;;;;;;0.67;0.40;;;;;16.90;99357.00;;;;2070364;28;20665;-54
2022/12/31 00:05:40;;;;;;;0.70;0.40;;;;;16.80;99347.00;;;;2071161;28;20298;-55
2022/12/31 00:06:40;;;;;;;0.80;0.43;;;;;16.90;99353.00;;;;2071171;28;20215;-52
2022/12/31 00:07:40;;;;;;;0.60;0.40;;;;;16.90;99345.00;;;;2071164;28;20221;-52
2022/12/31 00:08:41;;;;;;;0.80;0.40;;;;;16.90;99354.00;;;;2071108;28;20294;-54
2022/12/31 00:09:41;;;;;;;0.83;0.50;;;;;16.90;99346.00;;;;2071110;28;20360;-55
2022/12/31 00:10:42;;;;;;;0.60;0.40;;;;;16.90;99348.00;;;;2070660;28;20330;-55
2022/12/31 00:11:42;;;;;;;0.80;0.50;;;;;16.90;99346.00;;;;2066456;28;20224;-55
2022/12/31 00:12:42;;;;;;;0.67;0.50;;;;;16.90;99358.00;;;;2055338;28;20273;-54
2022/12/31 00:13:45;;;;;;;0.83;0.50;;;;;16.90;99357.00;;;;2062762;28;20224;-55
2022/12/31 00:14:45;;;;;;;0.73;0.50;;;;;16.90;99355.00;;;;2062313;28;20207;-53
2022/12/31 00:15:46;;;;;;;0.70;0.50;;;;;16.90;99361.00;;;;2066894;28;20214;-55
2022/12/31 00:16:46;;;;;;;0.60;0.40;;;;;16.90;99367.00;;;;2071163;28;20218;-55
2022/12/31 00:17:46;;;;;;;0.90;0.50;;;;;16.90;99359.00;;;;2070732;28;20211;-55
2022/12/31 00:18:48;;;;;;;0.60;0.40;;;;;16.90;99352.00;;;;2070745;28;20302;-52
2022/12/31 00:19:49;;;;;;;0.80;0.60;;;;;16.90;99358.00;;;;2071070;28;20215;-55
2022/12/31 00:20:49;;;;;;;0.60;0.40;;;;;16.90;99346.00;;;;2069727;28;20309;-53
2022/12/31 00:21:49;;;;;;;0.60;0.47;;;;;16.90;99365.00;;;;2070086;28;20215;-51
2022/12/31 00:22:50;;;;;;;0.70;0.40;;;;;16.90;99365.00;;;;2070341;28;20219;-53
2022/12/31 00:23:50;;;;;;;0.70;0.40;;;;;16.90;99364.00;;;;2070523;28;20218;-53
2022/12/31 00:24:50;;;;;;;0.70;0.50;;;;;16.90;99356.00;;;;2069976;28;20246;-55
2022/12/31 00:25:51;;;;;;;0.60;0.43;;;;;16.90;99355.00;;;;2070527;28;20299;-55
2022/12/31 00:26:51;;;;;;;1.10;0.47;;;;;16.90;99353.00;;;;2070980;28;20218;-55
2022/12/31 00:27:51;;;;;;;0.70;0.50;;;;;16.90;99340.00;;;;2070782;28;20218;-53
2022/12/31 00:28:53;;;;;;;0.70;0.40;;;;;16.90;99346.00;;;;2070887;28;20696;-55
2022/12/31 00:29:53;;;;;;;0.70;0.50;;;;;16.90;99348.00;;;;2071006;28;20583;-55
2022/12/31 00:30:53;;;;;;;0.60;0.40;;;;;16.90;99329.00;;;;2070718;28;20223;-53
2022/12/31 00:31:54;;;;;;;1.17;0.40;;;;;16.90;99356.00;;;;2069265;28;20365;-53
2022/12/31 00:32:54;;;;;;;0.70;0.40;;;;;16.90;99347.00;;;;2070477;28;20771;-54
2022/12/31 00:33:55;;;;;;;0.60;0.40;;;;;16.90;99343.00;;;;2070603;28;20226;-55
2022/12/31 00:34:55;;;;;;;0.80;0.50;;;;;16.90;99343.00;;;;2070815;28;20254;-55
2022/12/31 00:36:06;;;;;;;0.63;0.50;;;;;16.90;99339.00;;;;2068539;28;20286;-55
2022/12/31 00:37:06;;;;;;;0.70;0.40;;;;;16.90;99348.00;;;;2070708;28;20627;-54
2022/12/31 00:38:06;;;;;;;0.70;0.50;;;;;16.90;99347.00;;;;2070866;28;20206;-55
2022/12/31 00:39:07;;;;;;;0.70;0.50;;;;;16.90;99339.00;;;;2070332;28;20210;-55
2022/12/31 00:40:08;;;;;;;0.60;0.40;;;;;16.90;99343.00;;;;2070820;28;20215;-55
2022/12/31 00:41:08;;;;;;;0.60;0.40;;;;;16.90;99344.00;;;;2068182;28;20230;-53
2022/12/31 00:42:09;;;;;;;0.90;0.60;;;;;16.90;99341.00;;;;2061586;28;20211;-54
2022/12/31 00:43:09;;;;;;;1.00;0.50;;;;;16.90;99341.00;;;;2062121;28;20503;-52
2022/12/31 00:44:10;;;;;;;0.90;0.47;;;;;16.90;99339.00;;;;2062064;28;20935;-52
2022/12/31 00:45:11;;;;;;;0.80;0.50;;;;;16.90;99343.00;;;;2062354;28;20216;-53
2022/12/31 00:46:11;;;;;;;0.63;0.50;;;;;16.90;99343.00;;;;2062177;28;20876;-53
2022/12/31 00:47:11;;;;;;;0.60;0.50;;;;;16.90;99346.00;;;;2062064;28;20865;-54
2022/12/31 00:48:12;;;;;;;0.60;0.40;;;;;16.90;99351.00;;;;2062166;28;20218;-55
2022/12/31 00:49:12;;;;;;;0.60;0.40;;;;;16.90;99343.00;;;;2062134;28;20204;-54
2022/12/31 00:50:12;;;;;;;0.70;0.40;;;;;16.90;99342.00;;;;2062032;28;20270;-55
2022/12/31 00:51:17;;;;;;;0.60;0.40;;;;;16.90;99346.00;;;;2061744;28;20217;-52
2022/12/31 00:52:17;;;;;;;0.70;0.40;;;;;16.90;99342.00;;;;2066445;28;20678;-54
2022/12/31 00:53:17;;;;;;;0.60;0.40;;;;;16.90;99345.00;;;;2070168;28;20239;-55
2022/12/31 00:54:18;;;;;;;0.60;0.40;;;;;16.90;99338.00;;;;2069979;28;20211;-54
2022/12/31 00:55:18;;;;;;;0.80;0.50;;;;;16.90;99335.00;;;;2070175;28;20214;-55
2022/12/31 00:56:20;;;;;;;0.70;0.40;;;;;16.90;99328.00;;;;2070328;28;20237;-54
2022/12/31 00:57:20;;;;;;;0.70;0.43;;;;;16.90;99325.00;;;;2070430;28;21737;-55
2022/12/31 00:58:20;;;;;;;0.70;0.50;;;;;16.90;99326.00;;;;2070585;28;20315;-52
2022/12/31 00:59:21;;;;;;;0.83;0.50;;;;;16.90;99326.00;;;;2070560;28;20307;-51
2022/12/31 01:00:21;;;;;;;0.80;0.60;;;;;16.90;99321.00;;;;2070126;28;20214;-51
2022/12/31 01:01:22;;;;;;;0.83;0.40;;;;;16.90;99317.00;;;;2070119;28;20280;-54
2022/12/31 01:02:22;;;;;;;0.70;0.50;;;;;16.90;99312.00;;;;2070008;28;20237;-55
2022/12/31 01:03:23;;;;;;;1.20;0.50;;;;;16.90;99305.00;;;;2070330;28;20210;-53
2022/12/31 01:04:23;;;;;;;0.80;0.50;;;;;16.90;99308.00;;;;2070369;28;20241;-51
2022/12/31 01:05:23;;;;;;;0.77;0.50;;;;;16.90;99304.00;;;;2070163;28;20462;-53
2022/12/31 01:06:24;;;;;;;0.60;0.40;;;;;16.90;99296.00;;;;2070206;28;20236;-53
2022/12/31 01:07:24;;;;;;;0.70;0.50;;;;;16.90;99293.00;;;;2063380;28;20211;-54
2022/12/31 01:08:24;;;;;;;0.70;0.43;;;;;16.90;99295.00;;;;2066571;28;20305;-54
2022/12/31 01:09:25;;;;;;;0.70;0.40;;;;;16.90;99289.00;;;;2070123;28;20217;-54
2022/12/31 01:11:44;;;;;;;0.90;0.50;;;;;16.90;99288.00;;;;2068890;28;20206;-53
2022/12/31 01:12:45;;;;;;;0.70;0.40;;;;;16.90;99291.00;;;;2063421;28;20247;-54
2022/12/31 01:13:47;;;;;;;0.67;0.40;;;;;16.90;99291.00;;;;2062162;28;20212;-54
2022/12/31 01:14:48;;;;;;;0.70;0.40;;;;;16.90;99295.00;;;;2062159;28;20220;-53
2022/12/31 01:15:48;;;;;;;0.63;0.40;;;;;16.90;99287.00;;;;2062021;28;20767;-53
2022/12/31 01:16:50;;;;;;;0.70;0.40;;;;;16.90;99305.00;;;;2061877;28;20215;-52
2022/12/31 01:17:51;;;;;;;0.60;0.30;;;;;16.90;99283.00;;;;2062102;28;20215;-54
2022/12/31 01:18:51;;;;;;;0.70;0.40;;;;;16.90;99293.00;;;;2061883;28;20664;-54
2022/12/31 01:19:52;;;;;;;0.60;0.40;;;;;16.90;99293.00;;;;2067406;28;20602;-54
2022/12/31 01:20:52;;;;;;;0.70;0.40;;;;;16.90;99289.00;;;;2069872;28;20281;-52
2022/12/31 01:21:53;;;;;;;1.00;0.60;;;;;16.90;99290.00;;;;2069688;28;20278;-53
2022/12/31 01:22:53;;;;;;;0.70;0.43;;;;;16.90;99288.00;;;;2070582;28;20216;-55
2022/12/31 01:23:53;;;;;;;0.60;0.30;;;;;16.90;99287.00;;;;2070384;28;20645;-54
2022/12/31 01:24:54;;;;;;;0.73;0.40;;;;;16.90;99292.00;;;;2070474;28;20221;-54
2022/12/31 01:25:54;;;;;;;0.70;0.43;;;;;16.90;99283.00;;;;2070342;28;20272;-54
2022/12/31 01:26:56;;;;;;;0.70;0.40;;;;;16.90;99285.00;;;;2070367;28;20235;-54
2022/12/31 01:27:56;;;;;;;1.20;0.50;;;;;16.90;99283.00;;;;2070588;28;20284;-52
2022/12/31 01:28:57;;;;;;;0.87;0.50;;;;;16.90;99277.00;;;;2067622;28;20242;-52
2022/12/31 01:29:57;;;;;;;1.47;0.30;;;;;16.90;99284.00;;;;2062441;28;20306;-54
2022/12/31 01:30:57;;;;;;;0.60;0.40;;;;;16.90;99286.00;;;;2062559;28;20220;-53
2022/12/31 01:31:58;;;;;;;0.80;0.50;;;;;16.90;99282.00;;;;2061810;28;20227;-53
2022/12/31 01:32:58;;;;;;;0.60;0.40;;;;;16.90;99282.00;;;;2062496;28;20230;-53
2022/12/31 01:33:58;;;;;;;0.70;0.40;;;;;16.90;99290.00;;;;2062273;28;20244;-55
2022/12/31 01:34:59;;;;;;;0.60;0.40;;;;;16.90;99282.00;;;;2062411;28;20220;-51
2022/12/31 01:36:03;;;;;;;0.90;0.40;;;;;16.90;99249.00;;;;2062291;28;20251;-54
2022/12/31 01:37:04;;;;;;;0.80;0.50;;;;;16.90;99281.00;;;;2061335;28;20207;-54
2022/12/31 01:38:04;;;;;;;0.70;0.40;;;;;16.90;99275.00;;;;2062385;28;20269;-53
2022/12/31 01:39:05;;;;;;;0.60;0.33;;;;;16.90;99282.00;;;;2062395;28;20216;-54
2022/12/31 01:40:06;;;;;;;0.68;0.40;;;;;16.90;99273.00;;;;2061435;28;20220;-55
2022/12/31 01:41:07;;;;;;;0.60;0.40;;;;;16.90;99272.00;;;;2063452;28;20281;-54
2022/12/31 01:42:10;;;;;;;0.60;0.35;;;;;16.90;99277.00;;;;2061362;28;20211;-54
2022/12/31 01:43:17;;;;;;;0.60;0.40;;;;;16.90;99279.00;;;;2061673;28;20350;-53
2022/12/31 01:44:23;;;;;;;0.60;0.40;;;;;16.90;99282.00;;;;2061440;28;20223;-54
2022/12/31 01:45:23;;;;;;;0.60;0.30;;;;;16.90;99276.00;;;;2061557;28;20290;-53
2022/12/31 01:46:43;;;;;;;0.77;0.40;;;;;16.90;99279.00;;;;2062310;28;20199;-53
2022/12/31 01:47:45;;;;;;;0.70;0.40;;;;;16.90;99263.00;;;;2067376;28;20223;-55
2022/12/31 01:48:47;;;;;;;0.60;0.40;;;;;16.90;99269.00;;;;2069451;28;20293;-53
2022/12/31 01:49:53;;;;;;;0.60;0.40;;;;;16.70;99273.00;;;;2069611;28;20304;-53
2022/12/31 01:50:53;;;;;;;0.70;0.40;;;;;16.90;99265.00;;;;2069558;28;20677;-54
2022/12/31 01:52:02;;;;;;;0.60;0.40;;;;;16.90;99267.00;;;;2069097;28;20208;-55
2022/12/31 01:53:03;;;;;;;0.80;0.50;;;;;16.90;99272.00;;;;2069582;28;20269;-54
2022/12/31 01:54:05;;;;;;;0.70;0.40;;;;;16.90;99265.00;;;;2061456;28;20815;-54
2022/12/31 01:55:43;;;;;;;0.82;0.40;;;;;16.90;99265.00;;;;2061321;28;20270;-55
2022/12/31 01:56:44;;;;;;;0.80;0.43;;;;;16.90;99264.00;;;;2068747;28;20216;-53
2022/12/31 01:57:45;;;;;;;0.60;0.30;;;;;16.90;99259.00;;;;2057050;28;20696;-51
2022/12/31 01:58:46;;;;;;;0.60;0.40;;;;;16.90;99270.00;;;;2052941;28;20759;-53
2022/12/31 01:59:47;;;;;;;0.70;0.40;;;;;16.90;99262.00;;;;2061314;28;20747;-54
2022/12/31 02:00:48;;;;;;;1.00;0.50;;;;;16.90;99261.00;;;;2069204;28;20259;-55
2022/12/31 02:01:51;;;;;;;0.60;0.40;;;;;16.90;99271.00;;;;2069065;28;20238;-51
2022/12/31 02:02:52;;;;;;;0.70;0.50;;;;;16.90;99248.00;;;;2061491;28;20971;-55
2022/12/31 02:03:52;;;;;;;0.60;0.40;;;;;16.90;99262.00;;;;2053883;28;20214;-55
2022/12/31 02:04:54;;;;;;;0.80;0.50;;;;;16.90;99271.00;;;;2061540;28;20239;-52
2022/12/31 02:06:04;;;;;;;0.70;0.40;;;;;16.90;99259.00;;;;2061498;28;20235;-53
2022/12/31 02:07:05;;;;;;;0.60;0.40;;;;;16.90;99278.00;;;;2062563;28;20271;-53
2022/12/31 02:08:06;;;;;;;0.70;0.40;;;;;16.90;99274.00;;;;2060965;28;20688;-55
2022/12/31 02:09:06;;;;;;;0.73;0.40;;;;;16.90;99277.00;;;;2060546;28;20222;-55
2022/12/31 02:10:07;;;;;;;0.80;0.40;;;;;16.90;99289.00;;;;2053425;28;20724;-51
2022/12/31 02:11:35;;;;;;;0.70;0.40;;;;;16.90;99242.00;;;;2061510;28;20215;-52
2022/12/31 02:12:35;;;;;;;0.80;0.40;;;;;16.90;99286.00;;;;2067993;28;20286;-52
2022/12/31 02:13:35;;;;;;;0.70;0.40;;;;;16.90;99294.00;;;;2069242;28;20301;-55
2022/12/31 02:14:41;;;;;;;0.80;0.40;;;;;16.90;99286.00;;;;2069266;28;20211;-54
2022/12/31 02:16:08;;;;;;;0.60;0.40;;;;;16.90;99299.00;;;;2070194;28;20675;-52
2022/12/31 02:17:23;;;;;;;0.65;0.40;;;;;16.90;99297.00;;;;2069324;28;20394;-53
2022/12/31 02:18:56;;;;;;;2.47;0.40;;;;;16.90;99292.00;;;;2071719;28;20214;-52
2022/12/31 02:20:37;;;;;;;0.60;0.40;;;;;16.90;99281.00;;;;2071150;28;20321;-55
2022/12/31 02:21:43;;;;;;;0.70;0.40;;;;;16.90;99270.00;;;;2069947;28;20606;-54
2022/12/31 02:23:09;;;;;;;0.60;0.40;;;;;16.90;99275.00;;;;2069268;28;20206;-52
2022/12/31 02:24:24;;;;;;;0.70;0.40;;;;;16.90;99282.00;;;;2069178;28;20661;-53
2022/12/31 02:25:49;;;;;;;0.70;0.40;;;;;16.90;99278.00;;;;2070446;28;20214;-54
2022/12/31 02:26:56;;;;;;;0.75;0.40;;;;;16.90;99273.00;;;;2069179;28;20284;-51
2022/12/31 02:28:11;;;;;;;1.00;0.60;;;;;16.90;99270.00;;;;2063992;28;20211;-52
2022/12/31 02:29:45;;;;;;;0.80;0.50;;;;;16.90;99260.00;;;;2069653;28;20219;-53
2022/12/31 02:30:48;;;;;;;0.70;0.45;;;;;16.90;99268.00;;;;2072802;28;20264;-54
2022/12/31 02:32:09;;;;;;;0.60;0.40;;;;;16.90;99261.00;;;;2063697;28;20802;-51
2022/12/31 02:33:29;;;;;;;0.80;0.50;;;;;16.90;99261.00;;;;2062306;28;20757;-52
2022/12/31 02:34:35;;;;;;;0.85;0.50;;;;;16.90;99267.00;;;;2044551;28;20286;-52
2022/12/31 02:35:49;;;;;;;0.60;0.35;;;;;16.80;99265.00;;;;2048512;28;20226;-53
2022/12/31 02:36:50;;;;;;;0.70;0.50;;;;;16.90;99258.00;;;;2060524;28;20221;-54
2022/12/31 02:37:52;;;;;;;0.90;0.40;;;;;16.90;99267.00;;;;2069334;28;20272;-53
2022/12/31 02:38:52;;;;;;;0.60;0.30;;;;;16.90;99269.00;;;;2065589;28;20229;-52
2022/12/31 02:39:52;;;;;;;0.60;0.40;;;;;16.90;99255.00;;;;2053145;28;20751;-53
2022/12/31 02:40:53;;;;;;;0.60;0.40;;;;;16.90;99269.00;;;;2058808;28;20848;-54
2022/12/31 02:41:53;;;;;;;0.60;0.40;;;;;16.90;99268.00;;;;2060311;28;20633;-54
2022/12/31 02:42:54;;;;;;;0.77;0.40;;;;;16.90;99270.00;;;;2060843;28;20217;-54
2022/12/31 02:43:54;;;;;;;0.60;0.40;;;;;16.90;99281.00;;;;2064794;28;20222;-54
2022/12/31 02:44:54;;;;;;;0.60;0.40;;;;;16.90;99271.00;;;;2062043;28;20215;-55
2022/12/31 02:46:14;;;;;;;0.70;0.50;;;;;16.90;99273.00;;;;2061790;28;20222;-54
2022/12/31 02:47:33;;;;;;;0.80;0.50;;;;;16.90;99275.00;;;;2067489;28;20792;-53
2022/12/31 02:48:45;;;;;;;0.60;0.40;;;;;16.90;99275.00;;;;2064264;28;20255;-53
2022/12/31 02:49:58;;;;;;;0.93;0.57;;;;;16.90;99277.00;;;;2064145;28;20620;-54
2022/12/31 02:51:26;;;;;;;1.00;0.40;;;;;16.90;99277.00;;;;2072714;28;20207;-55
2022/12/31 02:52:49;;;;;;;0.60;0.30;;;;;16.90;99270.00;;;;2070803;28;20206;-54
2022/12/31 02:53:57;;;;;;;0.60;0.40;;;;;16.90;99269.00;;;;2074680;28;20802;-53
2022/12/31 02:55:00;;;;;;;1.77;0.40;;;;;16.90;99282.00;;;;2066225;28;20226;-55
2022/12/31 02:56:05;;;;;;;0.65;0.40;;;;;16.90;99284.00;;;;2070966;28;20639;-55
2022/12/31 02:57:50;;;;;;;0.70;0.40;;;;;16.90;99277.00;;;;2070931;28;20755;-53
2022/12/31 03:02:13;;;;;;;0.70;0.40;;;;;16.90;99285.00;;;;2061866;28;20574;-55
2022/12/31 03:03:13;;;;;;;0.70;0.40;;;;;16.90;99282.00;;;;2065249;28;20214;-55
2022/12/31 03:04:31;;;;;;;0.60;0.30;;;;;16.90;99285.00;;;;2065107;28;20300;-55
2022/12/31 03:05:33;;;;;;;0.70;0.40;;;;;16.90;99306.00;;;;2072624;28;20964;-54
2022/12/31 03:06:33;;;;;;;0.70;0.40;;;;;16.90;99285.00;;;;2070951;28;20215;-53
2022/12/31 03:07:34;;;;;;;0.70;0.40;;;;;16.90;99293.00;;;;2062576;28;20237;-52
2022/12/31 03:09:11;;;;;;;0.70;0.50;;;;;16.90;99308.00;;;;2061450;28;20239;-52
2022/12/31 03:09:55;;;;;;;0.60;0.35;;;;;16.90;99306.00;;;;2060812;28;20194;-54
2022/12/31 03:10:55;;;;;;;0.80;0.40;;;;;16.90;99314.00;;;;2062698;28;20211;-53
2022/12/31 03:13:15;;;;;;;0.70;0.50;;;;;16.90;99311.00;;;;2071632;28;20863;-54
2022/12/31 03:14:15;;;;;;;0.70;0.40;;;;;16.90;99315.00;;;;2068940;28;20219;-54
2022/12/31 03:15:22;;;;;;;0.70;0.40;;;;;16.90;99310.00;;;;2063085;28;20708;-53
2022/12/31 03:16:23;;;;;;;0.60;0.40;;;;;16.90;99312.00;;;;2067572;28;20302;-53
2022/12/31 03:17:23;;;;;;;0.60;0.30;;;;;16.90;99305.00;;;;2070679;28;20211;-54
2022/12/31 03:22:26;;;;;;;0.60;0.40;;;;;16.90;99298.00;;;;2064231;28;20207;-54
2022/12/31 03:22:30;;;;;;;0.60;0.40;;;;;16.90;99298.00;;;;2072994;28;20210;-52
2022/12/31 03:23:32;;;;;;;0.60;0.40;;;;;16.90;99315.00;;;;2071050;28;20214;-53
2022/12/31 03:25:52;;;;;;;0.60;0.35;;;;;16.90;99304.00;;;;2070899;28;20226;-54
2022/12/31 03:26:52;;;;;;;0.60;0.40;;;;;16.90;99309.00;;;;2071449;28;20218;-55
2022/12/31 03:27:52;;;;;;;0.70;0.40;;;;;16.90;99298.00;;;;2071319;28;20464;-54
2022/12/31 03:28:53;;;;;;;0.60;0.30;;;;;16.80;99309.00;;;;2071492;28;20227;-55
2022/12/31 03:29:53;;;;;;;0.60;0.40;;;;;16.90;99299.00;;;;2071665;28;20230;-52
2022/12/31 03:30:58;;;;;;;1.93;0.40;;;;;16.90;99306.00;;;;2070450;28;20885;-60
2022/12/31 03:31:58;;;;;;;0.60;0.30;;;;;16.90;99289.00;;;;2070791;28;20485;-54
2022/12/31 03:32:59;;;;;;;0.60;0.30;;;;;16.90;99316.00;;;;2071396;28;20318;-51
2022/12/31 03:33:59;;;;;;;1.10;0.40;;;;;16.90;99306.00;;;;2070328;28;20321;-54
2022/12/31 03:34:59;;;;;;;0.80;0.40;;;;;16.90;99305.00;;;;2070549;28;20315;-52
2022/12/31 03:36:06;;;;;;;0.60;0.40;;;;;16.90;99307.00;;;;2071231;28;20227;-52
2022/12/31 03:37:06;;;;;;;0.50;0.30;;;;;16.90;99314.00;;;;2063336;28;20219;-53
2022/12/31 03:38:06;;;;;;;0.60;0.37;;;;;16.90;99308.00;;;;2063330;28;20581;-54
2022/12/31 03:39:07;;;;;;;0.63;0.47;;;;;16.90;99312.00;;;;2070266;28;20620;-54
2022/12/31 03:40:08;;;;;;;0.60;0.40;;;;;16.90;99317.00;;;;2071206;28;20218;-54
2022/12/31 03:41:09;;;;;;;0.60;0.40;;;;;17.00;99309.00;;;;2069669;28;20218;-53
2022/12/31 03:42:09;;;;;;;0.67;0.40;;;;;16.90;99297.00;;;;2062783;28;20203;-53
2022/12/31 03:43:09;;;;;;;0.70;0.40;;;;;16.90;99293.00;;;;2063476;28;20443;-55
2022/12/31 03:44:10;;;;;;;0.60;0.40;;;;;16.90;99311.00;;;;2062360;28;20226;-52
2022/12/31 03:45:10;;;;;;;0.60;0.40;;;;;16.90;99311.00;;;;2062587;28;20250;-52
2022/12/31 03:46:11;;;;;;;0.60;0.40;;;;;16.90;99299.00;;;;2063198;28;20342;-54
2022/12/31 03:47:11;;;;;;;0.60;0.40;;;;;16.90;99309.00;;;;2063431;28;20217;-54
2022/12/31 03:48:11;;;;;;;0.60;0.30;;;;;16.90;99318.00;;;;2063025;28;20206;-54
2022/12/31 03:49:12;;;;;;;0.60;0.30;;;;;16.90;99308.00;;;;2062921;28;20211;-52
2022/12/31 03:50:13;;;;;;;0.60;0.40;;;;;16.90;99327.00;;;;2063193;28;20584;-53
2022/12/31 03:51:14;;;;;;;1.05;0.40;;;;;16.90;99324.00;;;;2063306;28;20289;-54
2022/12/31 03:52:14;;;;;;;0.70;0.40;;;;;16.90;99300.00;;;;2062699;28;20253;-51
2022/12/31 03:53:15;;;;;;;0.70;0.47;;;;;16.90;99315.00;;;;2063323;28;20218;-54
2022/12/31 03:54:15;;;;;;;0.67;0.40;;;;;16.90;99326.00;;;;2061894;28;20590;-55
2022/12/31 03:55:15;;;;;;;0.60;0.40;;;;;16.90;99323.00;;;;2055024;28;20622;-55
2022/12/31 03:56:16;;;;;;;0.70;0.40;;;;;16.90;99324.00;;;;2063235;28;20838;-54
2022/12/31 03:57:16;;;;;;;0.70;0.40;;;;;16.90;99331.00;;;;2063416;28;20317;-55
2022/12/31 03:58:16;;;;;;;0.60;0.40;;;;;16.90;99332.00;;;;2063173;28;20242;-55
2022/12/31 03:59:17;;;;;;;1.57;0.40;;;;;16.90;99316.00;;;;2065763;28;23170;-51
2022/12/31 04:00:18;;;;;;;0.60;0.37;;;;;16.90;99347.00;;;;2061491;28;20906;-54
2022/12/31 04:01:18;;;;;;;0.80;0.40;;;;;16.90;99315.00;;;;2069303;28;20306;-54
2022/12/31 04:02:19;;;;;;;0.70;0.40;;;;;16.90;99326.00;;;;2069133;28;20242;-52
2022/12/31 04:03:19;;;;;;;0.60;0.40;;;;;16.90;99321.00;;;;2071072;28;20249;-54
2022/12/31 04:04:20;;;;;;;0.60;0.33;;;;;16.90;99328.00;;;;2071400;28;20218;-54
2022/12/31 04:05:20;;;;;;;0.60;0.30;;;;;16.90;99334.00;;;;2071107;28;20280;-54
2022/12/31 04:06:20;;;;;;;0.60;0.40;;;;;16.90;99323.00;;;;2070667;28;20214;-53
2022/12/31 04:07:21;;;;;;;0.60;0.40;;;;;16.90;99314.00;;;;2071252;28;20302;-53
2022/12/31 04:08:21;;;;;;;0.60;0.40;;;;;16.90;99326.00;;;;2071111;28;20214;-53
2022/12/31 04:09:22;;;;;;;0.67;0.40;;;;;17.00;99330.00;;;;2070800;28;20221;-54
2022/12/31 04:10:22;;;;;;;0.70;0.40;;;;;16.90;99310.00;;;;2070919;28;20207;-53
2022/12/31 04:11:22;;;;;;;0.60;0.40;;;;;16.90;99329.00;;;;2071115;28;20218;-54
2022/12/31 04:12:23;;;;;;;0.70;0.40;;;;;17.00;99347.00;;;;2070702;28;20250;-54
2022/12/31 04:13:23;;;;;;;0.60;0.37;;;;;16.90;99320.00;;;;2071182;28;20298;-54
2022/12/31 04:14:23;;;;;;;1.43;0.30;;;;;17.00;99327.00;;;;2071146;28;20687;-53
2022/12/31 04:15:24;;;;;;;0.70;0.30;;;;;17.00;99325.00;;;;2070894;28;20892;-52
2022/12/31 04:16:24;;;;;;;0.60;0.37;;;;;16.90;99298.00;;;;2071187;28;20221;-53
2022/12/31 04:17:24;;;;;;;0.60;0.40;;;;;16.90;99317.00;;;;2070907;28;20216;-54
2022/12/31 04:18:25;;;;;;;0.80;0.40;;;;;16.90;99329.00;;;;2070752;28;20234;-53
2022/12/31 04:19:25;;;;;;;0.60;0.30;;;;;16.90;99314.00;;;;2071014;28;20237;-54
2022/12/31 04:20:25;;;;;;;0.70;0.40;;;;;17.00;99305.00;;;;2070649;28;20219;-53
2022/12/31 04:21:26;;;;;;;0.60;0.30;;;;;17.00;99327.00;;;;2070981;28;20281;-51
2022/12/31 04:22:26;;;;;;;0.70;0.40;;;;;17.00;99316.00;;;;2070477;28;20214;-53
2022/12/31 04:23:27;;;;;;;0.60;0.40;;;;;16.90;99273.00;;;;2071031;28;20224;-54
2022/12/31 04:24:27;;;;;;;0.60;0.40;;;;;16.90;99326.00;;;;2070995;28;20247;-54
2022/12/31 04:25:27;;;;;;;0.70;0.40;;;;;16.90;99330.00;;;;2070952;28;20242;-53
2022/12/31 04:26:28;;;;;;;0.70;0.40;;;;;16.80;99307.00;;;;2070058;28;20223;-53
2022/12/31 04:27:28;;;;;;;0.70;0.30;;;;;16.90;99317.00;;;;2071038;28;20219;-52
2022/12/31 04:28:29;;;;;;;0.60;0.30;;;;;16.90;99319.00;;;;2071162;28;20269;-54
2022/12/31 04:29:29;;;;;;;0.70;0.30;;;;;16.90;99311.00;;;;2070939;28;20629;-53
2022/12/31 04:30:29;;;;;;;0.67;0.40;;;;;16.90;99325.00;;;;2070859;28;20636;-52
2022/12/31 04:31:29;;;;;;;0.70;0.40;;;;;16.90;99321.00;;;;2062423;28;20673;-53
2022/12/31 04:32:30;;;;;;;0.70;0.40;;;;;16.90;99312.00;;;;2062468;28;20860;-52
2022/12/31 04:33:30;;;;;;;0.70;0.40;;;;;16.90;99289.00;;;;2063014;28;20269;-53
2022/12/31 04:34:31;;;;;;;0.60;0.30;;;;;16.90;99300.00;;;;2062908;28;20227;-51
2022/12/31 04:35:31;;;;;;;0.60;0.30;;;;;16.90;99319.00;;;;2062868;28;20472;-54
2022/12/31 04:36:31;;;;;;;0.67;0.40;;;;;17.00;99316.00;;;;2062674;28;20222;-55
2022/12/31 04:37:31;;;;;;;0.63;0.40;;;;;17.00;99308.00;;;;2062980;28;20222;-54
2022/12/31 04:38:32;;;;;;;0.60;0.30;;;;;16.90;99307.00;;;;2062884;28;20215;-54
2022/12/31 04:39:32;;;;;;;0.70;0.40;;;;;16.90;99318.00;;;;2062810;28;20366;-54
2022/12/31 04:40:33;;;;;;;0.70;0.40;;;;;16.90;99322.00;;;;2062661;28;20312;-53
2022/12/31 04:41:33;;;;;;;0.70;0.40;;;;;16.90;99318.00;;;;2064578;28;20236;-53
2022/12/31 04:42:34;;;;;;;0.60;0.40;;;;;16.90;99325.00;;;;2062216;28;20212;-53
2022/12/31 04:43:34;;;;;;;0.53;0.30;;;;;16.90;99323.00;;;;2063004;28;20223;-54
2022/12/31 04:44:34;;;;;;;0.60;0.40;;;;;16.90;99333.00;;;;2062436;28;20955;-59
2022/12/31 04:45:35;;;;;;;0.80;0.30;;;;;17.00;99337.00;;;;2062942;28;20281;-53
2022/12/31 04:46:35;;;;;;;0.50;0.30;;;;;17.00;99338.00;;;;2062248;28;20304;-52
2022/12/31 04:47:35;;;;;;;0.60;0.30;;;;;16.90;99332.00;;;;2061899;28;20219;-53
2022/12/31 04:48:36;;;;;;;0.60;0.30;;;;;17.00;99328.00;;;;2062637;28;20231;-54
2022/12/31 04:49:36;;;;;;;0.70;0.30;;;;;16.90;99335.00;;;;2062849;28;20238;-53
2022/12/31 04:50:36;;;;;;;0.60;0.30;;;;;17.00;99321.00;;;;2062750;28;20227;-54
2022/12/31 04:51:37;;;;;;;0.70;0.40;;;;;17.00;99322.00;;;;2062743;28;20554;-53
2022/12/31 04:52:37;;;;;;;0.80;0.50;;;;;17.00;99338.00;;;;2062047;28;20894;-54
2022/12/31 04:53:38;;;;;;;0.60;0.30;;;;;16.90;99336.00;;;;2062798;28;20735;-51
2022/12/31 04:54:38;;;;;;;0.60;0.30;;;;;17.00;99346.00;;;;2062639;28;20216;-53
2022/12/31 04:55:40;;;;;;;0.60;0.30;;;;;16.90;99339.00;;;;2062846;28;20235;-53
2022/12/31 04:56:40;;;;;;;0.65;0.35;;;;;16.90;99329.00;;;;2062750;28;20216;-53
2022/12/31 04:57:40;;;;;;;0.60;0.30;;;;;16.90;99337.00;;;;2062526;28;20215;-53
2022/12/31 04:58:41;;;;;;;0.60;0.30;;;;;16.80;99326.00;;;;2062671;28;20223;-53
2022/12/31 04:59:41;;;;;;;0.57;0.30;;;;;16.90;99344.00;;;;2062708;28;20580;-54
2022/12/31 05:00:43;;;;;;;0.60;0.30;;;;;16.90;99334.00;;;;2062577;28;20278;-53
2022/12/31 05:01:43;;;;;;;0.60;0.30;;;;;16.90;99341.00;;;;2062435;28;20227;-54
2022/12/31 05:02:44;;;;;;;0.70;0.37;;;;;17.00;99340.00;;;;2062011;28;20217;-55
2022/12/31 05:03:44;;;;;;;0.60;0.30;;;;;17.00;99345.00;;;;2062596;28;20218;-51
2022/12/31 05:04:45;;;;;;;0.60;0.30;;;;;16.90;99344.00;;;;2061858;28;20232;-54
2022/12/31 05:05:45;;;;;;;0.60;0.30;;;;;16.90;99335.00;;;;2061874;28;20215;-55
2022/12/31 05:06:45;;;;;;;0.80;0.40;;;;;17.00;99326.00;;;;2062594;28;20214;-54
2022/12/31 05:07:46;;;;;;;0.80;0.40;;;;;16.90;99338.00;;;;2062641;28;20626;-53
2022/12/31 05:08:47;;;;;;;0.60;0.30;;;;;17.00;99338.00;;;;2062468;28;20203;-55
2022/12/31 05:09:47;;;;;;;0.80;0.30;;;;;16.90;99343.00;;;;2061928;28;20326;-54
2022/12/31 05:10:47;;;;;;;0.60;0.30;;;;;16.90;99337.00;;;;2061858;28;20223;-55
2022/12/31 05:11:48;;;;;;;0.80;0.50;;;;;16.90;99335.00;;;;2061984;28;20726;-54
2022/12/31 05:12:48;;;;;;;0.70;0.30;;;;;16.90;99330.00;;;;2066068;28;20214;-51
2022/12/31 05:13:48;;;;;;;0.60;0.30;;;;;17.00;99343.00;;;;2070497;28;20207;-51
2022/12/31 05:14:49;;;;;;;0.60;0.40;;;;;16.90;99329.00;;;;2070409;28;20210;-51
2022/12/31 05:15:49;;;;;;;0.60;0.30;;;;;17.00;99332.00;;;;2070469;28;20215;-52
2022/12/31 05:16:50;;;;;;;0.70;0.40;;;;;17.00;99332.00;;;;2070219;28;20247;-51
2022/12/31 05:17:50;;;;;;;0.90;0.30;;;;;16.90;99337.00;;;;2069987;28;20820;-54
2022/12/31 05:18:50;;;;;;;0.80;0.30;;;;;17.00;99329.00;;;;2069865;28;20301;-54
2022/12/31 05:19:50;;;;;;;0.50;0.30;;;;;17.00;99310.00;;;;2070530;28;20215;-55
2022/12/31 05:20:51;;;;;;;0.90;0.40;;;;;17.00;99348.00;;;;2070727;28;20639;-54
2022/12/31 05:23:10;;;;;;;0.65;0.35;;;;;16.90;99334.00;;;;2069557;28;20215;-58
2022/12/31 05:24:10;;;;;;;0.90;0.40;;;;;16.90;99333.00;;;;2070439;28;20685;-53
2022/12/31 05:25:11;;;;;;;0.63;0.30;;;;;16.90;99321.00;;;;2070459;28;20343;-54
2022/12/31 05:26:11;;;;;;;0.73;0.40;;;;;16.80;99348.00;;;;2070564;28;20234;-53